sensor_id;sensor_type;location;lat;lon;timestamp;temperature;humidity
19039;DHT22;9652;49.014;12.052;2023-03-20T00:00:49;12.20;63.40
19039;DHT22;9652;49.014;12.052;2023-03-20T00:03:17;12.20;63.60
19039;DHT22;9652;49.014;12.052;2023-03-20T00:05:45;12.20;63.70
19039;DHT22;9652;49.014;12.052;2023-03-20T00:08:12;12.10;63.80
19039;DHT22;9652;49.014;12.052;2023-03-20T00:10:43;12.10;63.80
19039;DHT22;9652;49.014;12.052;2023-03-20T00:13:13;12.10;64.10
19039;DHT22;9652;49.014;12.052;2023-03-20T00:15:45;12.00;64.00
19039;DHT22;9652;49.014;12.052;2023-03-20T00:18:14;12.00;64.00
19039;DHT22;9652;49.014;12.052;2023-03-20T00:20:45;12.00;64.20
19039;DHT22;9652;49.014;12.052;2023-03-20T00:23:13;12.00;64.20
19039;DHT22;9652;49.014;12.052;2023-03-20T00:25:43;12.00;64.30
19039;DHT22;9652;49.014;12.052;2023-03-20T00:28:29;11.90;64.40
19039;DHT22;9652;49.014;12.052;2023-03-20T00:31:14;11.90;65.00
19039;DHT22;9652;49.014;12.052;2023-03-20T00:33:51;11.90;64.80
19039;DHT22;9652;49.014;12.052;2023-03-20T00:36:19;11.90;64.40
19039;DHT22;9652;49.014;12.052;2023-03-20T00:38:46;11.90;64.60
19039;DHT22;9652;49.014;12.052;2023-03-20T00:41:21;11.90;64.70
19039;DHT22;9652;49.014;12.052;2023-03-20T00:43:53;11.90;65.20
19039;DHT22;9652;49.014;12.052;2023-03-20T00:46:22;11.90;65.00
19039;DHT22;9652;49.014;12.052;2023-03-20T00:48:50;11.90;65.00
19039;DHT22;9652;49.014;12.052;2023-03-20T00:51:18;11.90;65.00
19039;DHT22;9652;49.014;12.052;2023-03-20T00:53:45;11.90;65.10
19039;DHT22;9652;49.014;12.052;2023-03-20T00:56:27;12.00;65.00
19039;DHT22;9652;49.014;12.052;2023-03-20T00:58:58;11.90;65.40
19039;DHT22;9652;49.014;12.052;2023-03-20T01:01:27;11.90;64.50
19039;DHT22;9652;49.014;12.052;2023-03-20T01:03:55;11.90;64.40
19039;DHT22;9652;49.014;12.052;2023-03-20T01:06:23;11.90;64.20
19039;DHT22;9652;49.014;12.052;2023-03-20T01:08:50;11.80;64.20
19039;DHT22;9652;49.014;12.052;2023-03-20T01:11:22;11.80;64.20
19039;DHT22;9652;49.014;12.052;2023-03-20T01:13:50;11.70;64.40
19039;DHT22;9652;49.014;12.052;2023-03-20T01:16:20;11.70;64.20
19039;DHT22;9652;49.014;12.052;2023-03-20T01:18:49;11.60;64.30
19039;DHT22;9652;49.014;12.052;2023-03-20T01:21:18;11.60;64.30
19039;DHT22;9652;49.014;12.052;2023-03-20T01:23:46;11.50;64.40
19039;DHT22;9652;49.014;12.052;2023-03-20T01:26:21;11.50;64.60
19039;DHT22;9652;49.014;12.052;2023-03-20T01:28:52;11.40;64.90
19039;DHT22;9652;49.014;12.052;2023-03-20T01:31:19;11.30;64.70
19039;DHT22;9652;49.014;12.052;2023-03-20T01:33:46;11.30;64.90
19039;DHT22;9652;49.014;12.052;2023-03-20T01:36:19;11.30;65.00
19039;DHT22;9652;49.014;12.052;2023-03-20T01:38:52;11.20;65.10
19039;DHT22;9652;49.014;12.052;2023-03-20T01:41:24;11.20;65.10
19039;DHT22;9652;49.014;12.052;2023-03-20T01:43:52;11.20;65.20
19039;DHT22;9652;49.014;12.052;2023-03-20T01:46:23;11.10;65.10
19039;DHT22;9652;49.014;12.052;2023-03-20T01:49:04;11.20;65.60
19039;DHT22;9652;49.014;12.052;2023-03-20T01:51:35;11.10;65.80
19039;DHT22;9652;49.014;12.052;2023-03-20T01:54:11;11.10;65.50
19039;DHT22;9652;49.014;12.052;2023-03-20T01:57:01;11.10;65.60
19039;DHT22;9652;49.014;12.052;2023-03-20T01:59:35;11.20;65.80
19039;DHT22;9652;49.014;12.052;2023-03-20T02:02:05;11.00;66.10
19039;DHT22;9652;49.014;12.052;2023-03-20T02:04:37;11.00;66.10
19039;DHT22;9652;49.014;12.052;2023-03-20T02:07:12;11.00;66.30
19039;DHT22;9652;49.014;12.052;2023-03-20T02:09:50;11.10;66.50
19039;DHT22;9652;49.014;12.052;2023-03-20T02:12:26;11.10;66.50
19039;DHT22;9652;49.014;12.052;2023-03-20T02:14:54;11.10;66.60
19039;DHT22;9652;49.014;12.052;2023-03-20T02:17:39;11.20;66.60
19039;DHT22;9652;49.014;12.052;2023-03-20T02:20:15;11.10;66.50
19039;DHT22;9652;49.014;12.052;2023-03-20T02:23:49;11.20;66.90
19039;DHT22;9652;49.014;12.052;2023-03-20T02:26:44;11.20;67.70
19039;DHT22;9652;49.014;12.052;2023-03-20T02:29:54;11.20;67.50
19039;DHT22;9652;49.014;12.052;2023-03-20T02:33:25;11.20;67.30
19039;DHT22;9652;49.014;12.052;2023-03-20T02:36:41;11.20;67.20
19039;DHT22;9652;49.014;12.052;2023-03-20T02:39:41;11.20;66.90
19039;DHT22;9652;49.014;12.052;2023-03-20T02:42:23;11.20;66.30
19039;DHT22;9652;49.014;12.052;2023-03-20T02:45:04;11.20;65.80
19039;DHT22;9652;49.014;12.052;2023-03-20T02:47:42;11.10;65.80
19039;DHT22;9652;49.014;12.052;2023-03-20T02:50:26;11.00;65.70
19039;DHT22;9652;49.014;12.052;2023-03-20T02:53:09;11.00;65.80
19039;DHT22;9652;49.014;12.052;2023-03-20T02:55:49;11.00;65.90
19039;DHT22;9652;49.014;12.052;2023-03-20T02:58:25;10.90;65.80
19039;DHT22;9652;49.014;12.052;2023-03-20T03:01:00;10.80;65.70
19039;DHT22;9652;49.014;12.052;2023-03-20T03:03:34;10.80;65.70
19039;DHT22;9652;49.014;12.052;2023-03-20T03:06:07;10.70;65.70
19039;DHT22;9652;49.014;12.052;2023-03-20T03:08:46;10.70;65.90
19039;DHT22;9652;49.014;12.052;2023-03-20T03:11:18;10.60;66.00
19039;DHT22;9652;49.014;12.052;2023-03-20T03:13:49;10.60;66.00
19039;DHT22;9652;49.014;12.052;2023-03-20T03:16:23;10.50;66.20
19039;DHT22;9652;49.014;12.052;2023-03-20T03:19:00;10.50;66.50
19039;DHT22;9652;49.014;12.052;2023-03-20T03:21:35;10.50;66.70
19039;DHT22;9652;49.014;12.052;2023-03-20T03:24:04;10.50;66.60
19039;DHT22;9652;49.014;12.052;2023-03-20T03:26:37;10.50;66.80
19039;DHT22;9652;49.014;12.052;2023-03-20T03:29:11;10.40;67.00
19039;DHT22;9652;49.014;12.052;2023-03-20T03:31:42;10.50;67.30
19039;DHT22;9652;49.014;12.052;2023-03-20T03:34:14;10.50;67.40
19039;DHT22;9652;49.014;12.052;2023-03-20T03:36:48;10.50;67.80
19039;DHT22;9652;49.014;12.052;2023-03-20T03:39:25;10.50;68.10
19039;DHT22;9652;49.014;12.052;2023-03-20T03:42:05;10.60;68.30
19039;DHT22;9652;49.014;12.052;2023-03-20T03:44:43;10.60;68.30
19039;DHT22;9652;49.014;12.052;2023-03-20T03:47:20;10.70;68.20
19039;DHT22;9652;49.014;12.052;2023-03-20T03:49:55;10.70;68.10
19039;DHT22;9652;49.014;12.052;2023-03-20T03:52:29;10.80;68.10
19039;DHT22;9652;49.014;12.052;2023-03-20T03:55:03;10.80;68.00
19039;DHT22;9652;49.014;12.052;2023-03-20T03:57:40;10.90;68.10
19039;DHT22;9652;49.014;12.052;2023-03-20T04:00:17;10.90;68.20
19039;DHT22;9652;49.014;12.052;2023-03-20T04:02:52;10.90;68.00
19039;DHT22;9652;49.014;12.052;2023-03-20T04:05:23;11.00;67.90
19039;DHT22;9652;49.014;12.052;2023-03-20T04:07:58;11.00;67.80
19039;DHT22;9652;49.014;12.052;2023-03-20T04:10:26;11.00;67.70
19039;DHT22;9652;49.014;12.052;2023-03-20T04:12:55;11.00;67.70
19039;DHT22;9652;49.014;12.052;2023-03-20T04:15:22;11.00;67.70
19039;DHT22;9652;49.014;12.052;2023-03-20T04:17:52;11.10;67.70
19039;DHT22;9652;49.014;12.052;2023-03-20T04:20:19;11.10;67.70
19039;DHT22;9652;49.014;12.052;2023-03-20T04:22:47;11.10;67.70
19039;DHT22;9652;49.014;12.052;2023-03-20T04:25:17;11.10;67.70
19039;DHT22;9652;49.014;12.052;2023-03-20T04:27:47;11.10;67.70
19039;DHT22;9652;49.014;12.052;2023-03-20T04:30:33;11.20;67.80
19039;DHT22;9652;49.014;12.052;2023-03-20T04:33:16;11.20;67.80
19039;DHT22;9652;49.014;12.052;2023-03-20T04:35:53;11.20;67.70
19039;DHT22;9652;49.014;12.052;2023-03-20T04:38:21;11.30;67.80
19039;DHT22;9652;49.014;12.052;2023-03-20T04:40:50;11.20;67.80
19039;DHT22;9652;49.014;12.052;2023-03-20T04:43:18;11.20;67.80
19039;DHT22;9652;49.014;12.052;2023-03-20T04:45:47;11.20;67.90
19039;DHT22;9652;49.014;12.052;2023-03-20T04:48:14;11.20;68.00
19039;DHT22;9652;49.014;12.052;2023-03-20T04:50:41;11.30;68.10
19039;DHT22;9652;49.014;12.052;2023-03-20T04:53:11;11.30;68.10
19039;DHT22;9652;49.014;12.052;2023-03-20T04:55:38;11.30;68.10
19039;DHT22;9652;49.014;12.052;2023-03-20T04:58:05;11.30;68.10
19039;DHT22;9652;49.014;12.052;2023-03-20T05:00:33;11.30;68.10
19039;DHT22;9652;49.014;12.052;2023-03-20T05:03:02;11.30;68.10
19039;DHT22;9652;49.014;12.052;2023-03-20T05:05:30;11.40;68.10
19039;DHT22;9652;49.014;12.052;2023-03-20T05:07:58;11.40;68.10
19039;DHT22;9652;49.014;12.052;2023-03-20T05:10:31;11.40;68.10
19039;DHT22;9652;49.014;12.052;2023-03-20T05:13:06;11.40;68.10
19039;DHT22;9652;49.014;12.052;2023-03-20T05:16:11;11.40;68.10
19039;DHT22;9652;49.014;12.052;2023-03-20T05:19:00;11.40;67.90
19039;DHT22;9652;49.014;12.052;2023-03-20T05:21:46;11.40;67.90
19039;DHT22;9652;49.014;12.052;2023-03-20T05:24:25;11.60;68.10
19039;DHT22;9652;49.014;12.052;2023-03-20T05:27:23;11.50;68.10
19039;DHT22;9652;49.014;12.052;2023-03-20T05:30:22;11.40;68.00
19039;DHT22;9652;49.014;12.052;2023-03-20T05:32:55;11.40;68.10
19039;DHT22;9652;49.014;12.052;2023-03-20T05:35:26;11.40;68.10
19039;DHT22;9652;49.014;12.052;2023-03-20T05:38:12;11.50;68.30
19039;DHT22;9652;49.014;12.052;2023-03-20T05:41:02;11.50;68.30
19039;DHT22;9652;49.014;12.052;2023-03-20T05:43:41;11.50;68.30
19039;DHT22;9652;49.014;12.052;2023-03-20T05:46:26;11.50;68.40
19039;DHT22;9652;49.014;12.052;2023-03-20T05:49:11;11.50;68.40
19039;DHT22;9652;49.014;12.052;2023-03-20T05:52:01;11.60;68.40
19039;DHT22;9652;49.014;12.052;2023-03-20T05:54:37;11.60;68.70
19039;DHT22;9652;49.014;12.052;2023-03-20T05:57:27;11.60;68.60
19039;DHT22;9652;49.014;12.052;2023-03-20T06:00:18;11.60;68.60
19039;DHT22;9652;49.014;12.052;2023-03-20T06:02:56;11.70;68.60
19039;DHT22;9652;49.014;12.052;2023-03-20T06:05:40;11.70;68.70
19039;DHT22;9652;49.014;12.052;2023-03-20T06:08:09;11.70;68.80
19039;DHT22;9652;49.014;12.052;2023-03-20T06:10:36;11.80;69.00
19039;DHT22;9652;49.014;12.052;2023-03-20T06:13:03;11.80;69.10
19039;DHT22;9652;49.014;12.052;2023-03-20T06:15:31;11.80;69.10
19039;DHT22;9652;49.014;12.052;2023-03-20T06:18:09;11.90;69.20
19039;DHT22;9652;49.014;12.052;2023-03-20T06:20:36;12.00;69.30
19039;DHT22;9652;49.014;12.052;2023-03-20T06:23:04;12.10;69.40
19039;DHT22;9652;49.014;12.052;2023-03-20T06:25:32;12.10;69.40
19039;DHT22;9652;49.014;12.052;2023-03-20T06:28:00;12.10;69.50
19039;DHT22;9652;49.014;12.052;2023-03-20T06:30:28;12.10;69.40
19039;DHT22;9652;49.014;12.052;2023-03-20T06:32:56;12.20;69.50
19039;DHT22;9652;49.014;12.052;2023-03-20T06:35:31;12.30;69.50
19039;DHT22;9652;49.014;12.052;2023-03-20T06:37:58;12.40;69.50
19039;DHT22;9652;49.014;12.052;2023-03-20T06:40:26;12.50;69.50
19039;DHT22;9652;49.014;12.052;2023-03-20T06:42:55;12.40;69.50
19039;DHT22;9652;49.014;12.052;2023-03-20T06:45:28;12.50;69.60
19039;DHT22;9652;49.014;12.052;2023-03-20T06:47:59;12.60;69.50
19039;DHT22;9652;49.014;12.052;2023-03-20T06:50:26;12.80;69.60
19039;DHT22;9652;49.014;12.052;2023-03-20T06:52:53;12.70;69.50
19039;DHT22;9652;49.014;12.052;2023-03-20T06:55:37;12.80;69.60
19039;DHT22;9652;49.014;12.052;2023-03-20T06:58:06;12.80;69.60
19039;DHT22;9652;49.014;12.052;2023-03-20T07:00:34;12.90;69.60
19039;DHT22;9652;49.014;12.052;2023-03-20T07:03:04;13.00;69.60
19039;DHT22;9652;49.014;12.052;2023-03-20T07:05:31;13.00;69.40
19039;DHT22;9652;49.014;12.052;2023-03-20T07:08:01;13.10;69.40
19039;DHT22;9652;49.014;12.052;2023-03-20T07:10:28;13.20;69.40
19039;DHT22;9652;49.014;12.052;2023-03-20T07:12:55;13.20;69.30
19039;DHT22;9652;49.014;12.052;2023-03-20T07:15:24;13.30;69.30
19039;DHT22;9652;49.014;12.052;2023-03-20T07:17:52;13.40;69.30
19039;DHT22;9652;49.014;12.052;2023-03-20T07:20:20;13.50;69.30
19039;DHT22;9652;49.014;12.052;2023-03-20T07:22:48;13.60;69.30
19039;DHT22;9652;49.014;12.052;2023-03-20T07:25:22;13.60;69.00
19039;DHT22;9652;49.014;12.052;2023-03-20T07:27:49;13.70;69.00
19039;DHT22;9652;49.014;12.052;2023-03-20T07:30:20;13.80;68.80
19039;DHT22;9652;49.014;12.052;2023-03-20T07:32:49;13.80;68.60
19039;DHT22;9652;49.014;12.052;2023-03-20T07:35:17;13.90;68.50
19039;DHT22;9652;49.014;12.052;2023-03-20T07:37:45;13.90;68.40
19039;DHT22;9652;49.014;12.052;2023-03-20T07:40:12;13.90;68.30
19039;DHT22;9652;49.014;12.052;2023-03-20T07:42:54;14.00;68.30
19039;DHT22;9652;49.014;12.052;2023-03-20T07:46:01;14.00;68.30
19039;DHT22;9652;49.014;12.052;2023-03-20T07:48:30;14.10;68.30
19039;DHT22;9652;49.014;12.052;2023-03-20T07:50:57;14.10;68.30
19039;DHT22;9652;49.014;12.052;2023-03-20T07:53:25;14.20;68.40
19039;DHT22;9652;49.014;12.052;2023-03-20T07:55:52;14.30;68.50
19039;DHT22;9652;49.014;12.052;2023-03-20T07:58:19;14.30;68.40
19039;DHT22;9652;49.014;12.052;2023-03-20T08:00:46;14.40;68.40
19039;DHT22;9652;49.014;12.052;2023-03-20T08:03:13;14.50;68.30
19039;DHT22;9652;49.014;12.052;2023-03-20T08:05:42;14.60;68.10
19039;DHT22;9652;49.014;12.052;2023-03-20T08:08:09;14.70;67.90
19039;DHT22;9652;49.014;12.052;2023-03-20T08:10:36;14.70;67.70
19039;DHT22;9652;49.014;12.052;2023-03-20T08:13:03;14.80;67.90
19039;DHT22;9652;49.014;12.052;2023-03-20T08:15:30;14.90;67.90
19039;DHT22;9652;49.014;12.052;2023-03-20T08:17:57;15.00;67.90
19039;DHT22;9652;49.014;12.052;2023-03-20T08:20:24;15.20;67.90
19039;DHT22;9652;49.014;12.052;2023-03-20T08:22:53;15.20;67.80
19039;DHT22;9652;49.014;12.052;2023-03-20T08:25:20;15.40;67.60
19039;DHT22;9652;49.014;12.052;2023-03-20T08:27:48;15.50;67.50
19039;DHT22;9652;49.014;12.052;2023-03-20T08:30:15;15.60;67.40
19039;DHT22;9652;49.014;12.052;2023-03-20T08:32:43;15.80;67.30
19039;DHT22;9652;49.014;12.052;2023-03-20T08:35:10;15.80;67.10
19039;DHT22;9652;49.014;12.052;2023-03-20T08:37:37;15.90;67.10
19039;DHT22;9652;49.014;12.052;2023-03-20T08:40:06;16.10;66.60
19039;DHT22;9652;49.014;12.052;2023-03-20T08:42:34;16.20;66.40
19039;DHT22;9652;49.014;12.052;2023-03-20T08:45:01;16.30;66.30
19039;DHT22;9652;49.014;12.052;2023-03-20T08:47:28;16.40;66.20
19039;DHT22;9652;49.014;12.052;2023-03-20T08:49:55;16.50;66.10
19039;DHT22;9652;49.014;12.052;2023-03-20T08:52:22;16.60;65.70
19039;DHT22;9652;49.014;12.052;2023-03-20T08:54:49;16.70;65.40
19039;DHT22;9652;49.014;12.052;2023-03-20T08:57:18;16.80;64.90
19039;DHT22;9652;49.014;12.052;2023-03-20T08:59:45;16.90;64.20
19039;DHT22;9652;49.014;12.052;2023-03-20T09:02:12;16.90;63.80
19039;DHT22;9652;49.014;12.052;2023-03-20T09:04:39;16.90;63.50
19039;DHT22;9652;49.014;12.052;2023-03-20T09:07:06;17.00;63.00
19039;DHT22;9652;49.014;12.052;2023-03-20T09:09:33;17.00;62.70
19039;DHT22;9652;49.014;12.052;2023-03-20T09:12:01;16.90;62.40
19039;DHT22;9652;49.014;12.052;2023-03-20T09:14:29;16.90;62.20
19039;DHT22;9652;49.014;12.052;2023-03-20T09:16:56;16.90;62.40
19039;DHT22;9652;49.014;12.052;2023-03-20T09:19:23;16.90;63.30
19039;DHT22;9652;49.014;12.052;2023-03-20T09:21:50;17.00;63.80
19039;DHT22;9652;49.014;12.052;2023-03-20T09:24:17;17.10;63.90
19039;DHT22;9652;49.014;12.052;2023-03-20T09:26:44;17.20;63.50
19039;DHT22;9652;49.014;12.052;2023-03-20T09:29:11;17.30;63.30
19039;DHT22;9652;49.014;12.052;2023-03-20T09:31:40;17.40;62.90
19039;DHT22;9652;49.014;12.052;2023-03-20T09:34:07;17.50;62.80
19039;DHT22;9652;49.014;12.052;2023-03-20T09:36:34;17.60;62.40
19039;DHT22;9652;49.014;12.052;2023-03-20T09:39:02;17.60;62.10
19039;DHT22;9652;49.014;12.052;2023-03-20T09:41:30;17.70;62.40
19039;DHT22;9652;49.014;12.052;2023-03-20T09:44:10;17.80;61.40
19039;DHT22;9652;49.014;12.052;2023-03-20T09:46:59;17.80;60.50
19039;DHT22;9652;49.014;12.052;2023-03-20T09:49:44;17.80;59.70
19039;DHT22;9652;49.014;12.052;2023-03-20T09:52:27;17.90;60.00
19039;DHT22;9652;49.014;12.052;2023-03-20T09:55:01;17.90;60.30
19039;DHT22;9652;49.014;12.052;2023-03-20T09:57:36;17.90;60.70
19039;DHT22;9652;49.014;12.052;2023-03-20T10:00:12;18.00;60.00
19039;DHT22;9652;49.014;12.052;2023-03-20T10:02:48;18.10;59.90
19039;DHT22;9652;49.014;12.052;2023-03-20T10:05:21;18.10;59.80
19039;DHT22;9652;49.014;12.052;2023-03-20T10:07:51;18.20;59.60
19039;DHT22;9652;49.014;12.052;2023-03-20T10:10:26;18.30;59.30
19039;DHT22;9652;49.014;12.052;2023-03-20T10:13:16;18.20;58.60
19039;DHT22;9652;49.014;12.052;2023-03-20T10:15:56;18.20;58.30
19039;DHT22;9652;49.014;12.052;2023-03-20T10:18:33;18.30;58.50
19039;DHT22;9652;49.014;12.052;2023-03-20T10:21:05;18.10;58.30
19039;DHT22;9652;49.014;12.052;2023-03-20T10:23:44;17.90;58.30
19039;DHT22;9652;49.014;12.052;2023-03-20T10:26:21;17.90;58.50
19039;DHT22;9652;49.014;12.052;2023-03-20T10:28:55;17.80;58.50
19039;DHT22;9652;49.014;12.052;2023-03-20T10:31:34;17.80;58.40
19039;DHT22;9652;49.014;12.052;2023-03-20T10:34:23;17.60;58.30
19039;DHT22;9652;49.014;12.052;2023-03-20T10:37:09;17.60;58.00
19039;DHT22;9652;49.014;12.052;2023-03-20T10:39:53;17.50;58.20
19039;DHT22;9652;49.014;12.052;2023-03-20T10:42:33;17.40;58.30
19039;DHT22;9652;49.014;12.052;2023-03-20T10:45:08;17.30;58.50
19039;DHT22;9652;49.014;12.052;2023-03-20T10:47:50;17.30;58.80
19039;DHT22;9652;49.014;12.052;2023-03-20T10:50:22;17.40;59.00
19039;DHT22;9652;49.014;12.052;2023-03-20T10:52:55;17.50;59.20
19039;DHT22;9652;49.014;12.052;2023-03-20T10:55:25;17.50;59.40
19039;DHT22;9652;49.014;12.052;2023-03-20T10:58:00;17.60;59.10
19039;DHT22;9652;49.014;12.052;2023-03-20T11:00:31;17.70;58.80
19039;DHT22;9652;49.014;12.052;2023-03-20T11:02:58;17.80;58.50
19039;DHT22;9652;49.014;12.052;2023-03-20T11:05:30;17.80;58.50
19039;DHT22;9652;49.014;12.052;2023-03-20T11:08:01;17.90;58.40
19039;DHT22;9652;49.014;12.052;2023-03-20T11:10:32;17.90;58.60
19039;DHT22;9652;49.014;12.052;2023-03-20T11:13:13;18.00;58.50
19039;DHT22;9652;49.014;12.052;2023-03-20T11:15:44;18.00;57.80
19039;DHT22;9652;49.014;12.052;2023-03-20T11:18:12;18.10;58.30
19039;DHT22;9652;49.014;12.052;2023-03-20T11:20:46;18.10;58.60
19039;DHT22;9652;49.014;12.052;2023-03-20T11:23:18;18.20;58.20
19039;DHT22;9652;49.014;12.052;2023-03-20T11:25:51;18.30;58.20
19039;DHT22;9652;49.014;12.052;2023-03-20T11:28:29;18.30;58.00
19039;DHT22;9652;49.014;12.052;2023-03-20T11:31:02;18.40;57.40
19039;DHT22;9652;49.014;12.052;2023-03-20T11:33:36;18.40;57.30
19039;DHT22;9652;49.014;12.052;2023-03-20T11:36:18;18.40;57.10
19039;DHT22;9652;49.014;12.052;2023-03-20T11:38:49;18.40;56.90
19039;DHT22;9652;49.014;12.052;2023-03-20T11:41:21;18.40;57.10
19039;DHT22;9652;49.014;12.052;2023-03-20T11:43:50;18.50;57.30
19039;DHT22;9652;49.014;12.052;2023-03-20T11:46:19;18.50;57.50
19039;DHT22;9652;49.014;12.052;2023-03-20T11:49:02;18.50;57.40
19039;DHT22;9652;49.014;12.052;2023-03-20T11:51:35;18.60;56.70
19039;DHT22;9652;49.014;12.052;2023-03-20T11:54:05;18.70;57.00
19039;DHT22;9652;49.014;12.052;2023-03-20T11:56:50;18.70;56.90
19039;DHT22;9652;49.014;12.052;2023-03-20T11:59:21;18.70;56.40
19039;DHT22;9652;49.014;12.052;2023-03-20T12:01:52;18.70;56.70
19039;DHT22;9652;49.014;12.052;2023-03-20T12:04:26;18.80;56.50
19039;DHT22;9652;49.014;12.052;2023-03-20T12:07:00;18.70;56.10
19039;DHT22;9652;49.014;12.052;2023-03-20T12:09:36;18.80;56.30
19039;DHT22;9652;49.014;12.052;2023-03-20T12:12:12;18.80;56.90
19039;DHT22;9652;49.014;12.052;2023-03-20T12:14:52;18.80;56.50
19039;DHT22;9652;49.014;12.052;2023-03-20T12:17:37;18.70;56.30
19039;DHT22;9652;49.014;12.052;2023-03-20T12:20:23;18.70;56.40
19039;DHT22;9652;49.014;12.052;2023-03-20T12:23:01;18.50;56.60
19039;DHT22;9652;49.014;12.052;2023-03-20T12:25:39;18.40;57.00
19039;DHT22;9652;49.014;12.052;2023-03-20T12:28:18;18.20;58.10
19039;DHT22;9652;49.014;12.052;2023-03-20T12:30:58;18.00;61.50
19039;DHT22;9652;49.014;12.052;2023-03-20T12:33:41;17.60;64.50
19039;DHT22;9652;49.014;12.052;2023-03-20T12:36:16;17.40;66.60
19039;DHT22;9652;49.014;12.052;2023-03-20T12:38:47;17.20;68.00
19039;DHT22;9652;49.014;12.052;2023-03-20T12:41:17;17.00;69.40
19039;DHT22;9652;49.014;12.052;2023-03-20T12:44:05;16.90;70.90
19039;DHT22;9652;49.014;12.052;2023-03-20T12:46:56;16.80;73.20
19039;DHT22;9652;49.014;12.052;2023-03-20T12:49:39;16.80;73.30
19039;DHT22;9652;49.014;12.052;2023-03-20T12:52:21;16.80;74.50
19039;DHT22;9652;49.014;12.052;2023-03-20T12:55:20;16.80;75.50
19039;DHT22;9652;49.014;12.052;2023-03-20T12:58:05;17.00;77.20
19039;DHT22;9652;49.014;12.052;2023-03-20T13:00:47;17.10;76.70
19039;DHT22;9652;49.014;12.052;2023-03-20T13:03:44;17.10;76.70
19039;DHT22;9652;49.014;12.052;2023-03-20T13:06:30;17.10;77.90
19039;DHT22;9652;49.014;12.052;2023-03-20T13:12:36;17.20;78.30
19039;DHT22;9652;49.014;12.052;2023-03-20T13:15:22;17.20;77.80
19039;DHT22;9652;49.014;12.052;2023-03-20T13:18:00;17.20;78.30
19039;DHT22;9652;49.014;12.052;2023-03-20T13:20:38;17.30;78.30
19039;DHT22;9652;49.014;12.052;2023-03-20T13:23:20;17.30;78.30
19039;DHT22;9652;49.014;12.052;2023-03-20T13:26:07;17.30;78.40
19039;DHT22;9652;49.014;12.052;2023-03-20T13:28:50;17.30;78.80
19039;DHT22;9652;49.014;12.052;2023-03-20T13:31:31;17.30;78.20
19039;DHT22;9652;49.014;12.052;2023-03-20T13:34:11;17.30;77.70
19039;DHT22;9652;49.014;12.052;2023-03-20T13:37:00;17.30;77.80
19039;DHT22;9652;49.014;12.052;2023-03-20T13:39:45;17.20;77.80
19039;DHT22;9652;49.014;12.052;2023-03-20T13:42:17;17.10;77.60
19039;DHT22;9652;49.014;12.052;2023-03-20T13:44:50;17.10;77.50
19039;DHT22;9652;49.014;12.052;2023-03-20T13:47:24;17.00;77.30
19039;DHT22;9652;49.014;12.052;2023-03-20T13:49:58;16.90;77.20
19039;DHT22;9652;49.014;12.052;2023-03-20T13:52:55;16.80;77.40
19039;DHT22;9652;49.014;12.052;2023-03-20T13:55:31;16.70;77.60
19039;DHT22;9652;49.014;12.052;2023-03-20T13:58:23;16.70;77.60
19039;DHT22;9652;49.014;12.052;2023-03-20T14:01:23;16.50;77.70
19039;DHT22;9652;49.014;12.052;2023-03-20T14:03:58;16.50;77.90
19039;DHT22;9652;49.014;12.052;2023-03-20T14:06:47;16.40;78.30
19039;DHT22;9652;49.014;12.052;2023-03-20T14:09:31;16.40;79.10
19039;DHT22;9652;49.014;12.052;2023-03-20T14:12:03;16.30;79.50
19039;DHT22;9652;49.014;12.052;2023-03-20T14:14:38;16.30;79.80
19039;DHT22;9652;49.014;12.052;2023-03-20T14:17:14;16.40;80.10
19039;DHT22;9652;49.014;12.052;2023-03-20T14:19:45;16.40;80.20
19039;DHT22;9652;49.014;12.052;2023-03-20T14:22:15;16.40;79.80
19039;DHT22;9652;49.014;12.052;2023-03-20T14:24:54;16.40;80.50
19039;DHT22;9652;49.014;12.052;2023-03-20T14:27:26;16.40;79.60
19039;DHT22;9652;49.014;12.052;2023-03-20T14:29:54;16.40;79.10
19039;DHT22;9652;49.014;12.052;2023-03-20T14:32:34;16.40;78.90
19039;DHT22;9652;49.014;12.052;2023-03-20T14:35:22;16.30;79.00
19039;DHT22;9652;49.014;12.052;2023-03-20T14:38:13;16.30;79.10
19039;DHT22;9652;49.014;12.052;2023-03-20T14:40:52;16.30;79.20
19039;DHT22;9652;49.014;12.052;2023-03-20T14:43:44;16.30;79.10
19039;DHT22;9652;49.014;12.052;2023-03-20T14:46:28;16.20;79.30
19039;DHT22;9652;49.014;12.052;2023-03-20T14:52:14;16.30;79.60
19039;DHT22;9652;49.014;12.052;2023-03-20T14:55:14;16.30;79.30
19039;DHT22;9652;49.014;12.052;2023-03-20T14:57:56;16.30;79.00
19039;DHT22;9652;49.014;12.052;2023-03-20T15:00:26;16.40;78.90
19039;DHT22;9652;49.014;12.052;2023-03-20T15:03:05;16.40;78.40
19039;DHT22;9652;49.014;12.052;2023-03-20T15:05:36;16.40;77.90
19039;DHT22;9652;49.014;12.052;2023-03-20T15:08:08;16.30;77.70
19039;DHT22;9652;49.014;12.052;2023-03-20T15:10:45;16.30;77.20
19039;DHT22;9652;49.014;12.052;2023-03-20T15:13:14;16.30;77.00
19039;DHT22;9652;49.014;12.052;2023-03-20T15:15:52;16.30;76.90
19039;DHT22;9652;49.014;12.052;2023-03-20T15:18:22;16.40;76.30
19039;DHT22;9652;49.014;12.052;2023-03-20T15:20:50;16.30;76.40
19039;DHT22;9652;49.014;12.052;2023-03-20T15:23:19;16.30;76.20
19039;DHT22;9652;49.014;12.052;2023-03-20T15:25:47;16.30;75.80
19039;DHT22;9652;49.014;12.052;2023-03-20T15:28:18;16.30;75.70
19039;DHT22;9652;49.014;12.052;2023-03-20T15:30:49;16.30;75.50
19039;DHT22;9652;49.014;12.052;2023-03-20T15:33:24;16.30;75.40
19039;DHT22;9652;49.014;12.052;2023-03-20T15:35:53;16.30;75.00
19039;DHT22;9652;49.014;12.052;2023-03-20T15:38:26;16.30;75.00
19039;DHT22;9652;49.014;12.052;2023-03-20T15:40:56;16.30;74.70
19039;DHT22;9652;49.014;12.052;2023-03-20T15:43:24;16.30;74.80
19039;DHT22;9652;49.014;12.052;2023-03-20T15:45:53;16.30;74.40
19039;DHT22;9652;49.014;12.052;2023-03-20T15:48:24;16.30;74.00
19039;DHT22;9652;49.014;12.052;2023-03-20T15:50:53;16.30;73.70
19039;DHT22;9652;49.014;12.052;2023-03-20T15:53:28;16.30;73.20
19039;DHT22;9652;49.014;12.052;2023-03-20T15:56:01;16.30;72.30
19039;DHT22;9652;49.014;12.052;2023-03-20T15:58:31;16.20;72.10
19039;DHT22;9652;49.014;12.052;2023-03-20T16:01:00;16.30;72.20
19039;DHT22;9652;49.014;12.052;2023-03-20T16:03:30;16.20;71.60
19039;DHT22;9652;49.014;12.052;2023-03-20T16:05:58;16.20;71.50
19039;DHT22;9652;49.014;12.052;2023-03-20T16:08:29;16.20;71.50
19039;DHT22;9652;49.014;12.052;2023-03-20T16:10:59;16.20;70.90
19039;DHT22;9652;49.014;12.052;2023-03-20T16:13:32;16.20;70.70
19039;DHT22;9652;49.014;12.052;2023-03-20T16:16:02;16.20;70.20
19039;DHT22;9652;49.014;12.052;2023-03-20T16:18:34;16.20;70.10
19039;DHT22;9652;49.014;12.052;2023-03-20T16:21:05;16.20;70.30
19039;DHT22;9652;49.014;12.052;2023-03-20T16:23:43;16.10;69.50